Time;durP1;ratioP1;P1;durP2;ratioP2;P2;SDS_P1;SDS_P2;PMS_P1;PMS_P2;Temp;Humidity;BMP_temperature;BMP_pressure;BME280_temperature;BME280_humidity;BME280_pressure;Samples;Min_cycle;Max_cycle;Signal;HPM_P1;HPM_P2
2024/04/19 00:00:38;;;;;;;;;;;6.10;1.00;;;;;;5416747;26;19925;-74
2024/04/19 00:03:04;;;;;;;;;;;6.10;1.00;;;;;;5421473;26;20005;-75
2024/04/19 00:05:30;;;;;;;;;;;6.20;1.00;;;;;;5452681;26;19924;-75
2024/04/19 00:08:06;;;;;;;;;;;6.30;1.00;;;;;;5452690;26;20375;-75
2024/04/19 00:10:48;;;;;;;;;;;6.30;1.00;;;;;;5463589;26;19939;-77
2024/04/19 00:13:14;;;;;;;;;;;6.40;1.00;;;;;;5453339;26;19931;-77
2024/04/19 00:15:57;;;;;;;;;;;6.50;1.00;;;;;;5428101;26;19968;-77
2024/04/19 00:18:25;;;;;;;;;;;6.50;1.00;;;;;;5452678;26;20302;-77
2024/04/19 00:20:55;;;;;;;;;;;6.50;1.00;;;;;;5456406;26;20367;-77
2024/04/19 00:23:48;;;;;;;;;;;6.60;1.00;;;;;;5466837;26;20073;-77
2024/04/19 00:26:20;;;;;;;;;;;6.60;1.00;;;;;;5419772;26;19933;-77
2024/04/19 00:28:46;;;;;;;;;;;6.60;1.00;;;;;;5443435;26;19932;-77
2024/04/19 00:31:12;;;;;;;;;;;6.70;1.00;;;;;;5419883;26;19925;-77
2024/04/19 00:33:38;;;;;;;;;;;6.70;1.00;;;;;;5428932;26;19925;-77
2024/04/19 00:36:04;;;;;;;;;;;6.70;1.00;;;;;;5456267;26;19935;-77
2024/04/19 00:38:30;;;;;;;;;;;6.70;1.00;;;;;;5455940;26;19957;-77
2024/04/19 00:40:55;;;;;;;;;;;6.80;1.00;;;;;;5455884;26;19931;-77
2024/04/19 00:43:21;;;;;;;;;;;6.80;1.00;;;;;;5456116;26;19939;-77
2024/04/19 00:45:47;;;;;;;;;;;6.80;1.00;;;;;;5453797;26;19924;-77
2024/04/19 00:48:18;;;;;;;;;;;6.80;1.00;;;;;;5455671;26;19925;-77
2024/04/19 00:51:01;;;;;;;;;;;6.80;1.00;;;;;;5455816;26;19932;-77
2024/04/19 00:53:30;;;;;;;;;;;6.80;1.00;;;;;;5455933;26;19932;-76
2024/04/19 00:55:57;;;;;;;;;;;6.90;1.00;;;;;;5455442;26;20321;-75
2024/04/19 00:58:26;;;;;;;;;;;6.80;1.00;;;;;;5467429;26;19924;-75
2024/04/19 01:00:52;;;;;;;;;;;6.90;1.00;;;;;;5459949;26;20310;-76
2024/04/19 01:03:18;;;;;;;;;;;6.80;1.00;;;;;;5455155;26;19924;-75
2024/04/19 01:05:43;;;;;;;;;;;6.80;1.00;;;;;;5455436;26;19925;-75
2024/04/19 01:08:09;;;;;;;;;;;6.90;1.00;;;;;;5455751;26;19993;-75
2024/04/19 01:10:36;;;;;;;;;;;6.80;1.00;;;;;;5455017;26;19932;-78
2024/04/19 01:13:02;;;;;;;;;;;6.80;1.00;;;;;;5454890;26;19966;-77
2024/04/19 01:15:27;;;;;;;;;;;6.90;1.00;;;;;;5434831;26;19933;-77
2024/04/19 01:17:53;;;;;;;;;;;6.80;1.00;;;;;;5426048;26;19936;-77
2024/04/19 01:20:19;;;;;;;;;;;6.80;1.00;;;;;;5455156;26;19932;-77
2024/04/19 01:22:46;;;;;;;;;;;6.80;1.00;;;;;;5455277;26;19931;-77
2024/04/19 01:25:38;;;;;;;;;;;6.70;1.00;;;;;;5455628;26;20367;-77
2024/04/19 01:28:18;;;;;;;;;;;6.70;1.00;;;;;;5432867;26;19932;-78
2024/04/19 01:30:54;;;;;;;;;;;6.70;1.00;;;;;;5455906;26;19925;-77
2024/04/19 01:33:20;;;;;;;;;;;6.70;1.00;;;;;;5454570;26;19924;-77
2024/04/19 01:35:46;;;;;;;;;;;6.70;1.00;;;;;;5455697;26;19924;-77
2024/04/19 01:38:11;;;;;;;;;;;6.60;1.00;;;;;;5455921;26;19993;-78
2024/04/19 01:40:37;;;;;;;;;;;6.50;1.00;;;;;;5459406;26;19924;-76
2024/04/19 01:43:07;;;;;;;;;;;6.50;1.00;;;;;;5492133;26;19930;-76
2024/04/19 01:45:42;;;;;;;;;;;6.50;1.00;;;;;;5459277;26;19940;-76
2024/04/19 01:48:09;;;;;;;;;;;6.50;1.00;;;;;;5455644;26;19924;-75
2024/04/19 01:50:36;;;;;;;;;;;6.60;1.00;;;;;;5455561;26;19933;-75
2024/04/19 01:53:02;;;;;;;;;;;6.50;1.00;;;;;;5463552;26;19931;-75
2024/04/19 01:55:29;;;;;;;;;;;6.50;1.00;;;;;;5431362;26;19924;-75
2024/04/19 01:57:54;;;;;;;;;;;6.50;1.00;;;;;;5455663;26;19925;-75
2024/04/19 02:00:20;;;;;;;;;;;6.40;1.00;;;;;;5455263;26;20052;-75
2024/04/19 02:02:46;;;;;;;;;;;6.40;1.00;;;;;;5455360;26;19931;-75
2024/04/19 02:05:11;;;;;;;;;;;6.50;1.00;;;;;;5439339;26;19925;-75
2024/04/19 02:07:37;;;;;;;;;;;6.50;1.00;;;;;;5449346;26;19932;-75
2024/04/19 02:10:07;;;;;;;;;;;6.50;1.00;;;;;;5437973;26;19932;-77
2024/04/19 02:12:36;;;;;;;;;;;6.50;1.00;;;;;;5455361;26;20371;-77
2024/04/19 02:15:02;;;;;;;;;;;6.50;1.00;;;;;;5455287;26;19924;-77
2024/04/19 02:17:36;;;;;;;;;;;6.60;1.00;;;;;;5452375;26;19934;-77
2024/04/19 02:20:02;;;;;;;;;;;6.60;1.00;;;;;;5475942;26;19924;-77
2024/04/19 02:22:30;;;;;;;;;;;6.60;1.00;;;;;;5478126;26;19932;-77
2024/04/19 02:24:56;;;;;;;;;;;6.70;1.00;;;;;;5455280;26;19953;-75
2024/04/19 02:32:54;;;;;;;;;;;6.70;1.00;;;;;;5454305;26;19931;-75
2024/04/19 02:35:20;;;;;;;;;;;6.70;1.00;;;;;;5454150;26;20360;-75
2024/04/19 02:37:54;;;;;;;;;;;6.70;1.00;;;;;;5458803;26;19924;-75
2024/04/19 02:40:20;;;;;;;;;;;6.70;1.00;;;;;;5455880;26;20351;-77
2024/04/19 02:42:46;;;;;;;;;;;6.70;1.00;;;;;;5454361;26;19924;-78
2024/04/19 02:45:11;;;;;;;;;;;6.60;1.00;;;;;;5453671;26;19935;-77
2024/04/19 02:47:37;;;;;;;;;;;6.70;1.00;;;;;;5454180;26;19925;-77
2024/04/19 02:50:18;;;;;;;;;;;6.80;1.00;;;;;;5465526;26;19997;-77
2024/04/19 02:52:48;;;;;;;;;;;6.70;1.00;;;;;;5454019;26;19924;-77
2024/04/19 02:55:24;;;;;;;;;;;6.60;1.00;;;;;;5454033;26;19932;-77
2024/04/19 02:58:01;;;;;;;;;;;6.50;1.00;;;;;;5453887;26;19932;-77
2024/04/19 03:00:26;;;;;;;;;;;6.60;1.00;;;;;;5453814;26;19925;-77
2024/04/19 03:02:52;;;;;;;;;;;6.70;1.00;;;;;;5453567;26;19966;-77
2024/04/19 03:05:17;;;;;;;;;;;6.60;1.00;;;;;;5453967;26;19925;-77
2024/04/19 03:07:43;;;;;;;;;;;6.60;1.00;;;;;;5449418;26;19952;-77
2024/04/19 03:10:12;;;;;;;;;;;6.70;1.00;;;;;;5434189;26;19935;-76
2024/04/19 03:12:38;;;;;;;;;;;6.60;1.00;;;;;;5453701;26;19924;-75
2024/04/19 03:15:04;;;;;;;;;;;6.70;1.00;;;;;;5453525;26;19924;-75
2024/04/19 03:17:36;;;;;;;;;;;6.70;1.00;;;;;;5453252;26;19932;-75
2024/04/19 03:20:02;;;;;;;;;;;6.80;1.00;;;;;;5457517;26;19923;-75
2024/04/19 03:22:28;;;;;;;;;;;6.70;1.00;;;;;;5453292;26;19932;-75
2024/04/19 03:25:00;;;;;;;;;;;6.80;1.00;;;;;;5453939;26;19928;-75
2024/04/19 03:27:31;;;;;;;;;;;6.80;1.00;;;;;;5453177;26;19994;-75
2024/04/19 03:30:00;;;;;;;;;;;6.70;1.00;;;;;;5427942;26;19924;-75
2024/04/19 03:32:26;;;;;;;;;;;6.70;1.00;;;;;;5454582;26;19924;-75
2024/04/19 03:34:52;;;;;;;;;;;6.70;1.00;;;;;;5457009;26;19931;-76
2024/04/19 03:37:18;;;;;;;;;;;6.70;1.00;;;;;;5451549;26;19925;-76
2024/04/19 03:39:54;;;;;;;;;;;6.80;1.00;;;;;;5453405;26;19924;-75
2024/04/19 03:42:20;;;;;;;;;;;6.70;1.00;;;;;;5420564;26;19932;-76
2024/04/19 03:47:42;;;;;;;;;;;6.70;1.00;;;;;;5446822;26;19931;-77
2024/04/19 03:50:08;;;;;;;;;;;6.80;1.00;;;;;;5452861;26;19960;-76
2024/04/19 03:52:42;;;;;;;;;;;6.90;1.00;;;;;;5452912;26;19936;-77
2024/04/19 03:55:08;;;;;;;;;;;7.00;1.00;;;;;;5453063;26;19931;-75
2024/04/19 03:57:34;;;;;;;;;;;7.10;1.00;;;;;;5448764;26;19925;-76
2024/04/19 04:00:01;;;;;;;;;;;7.10;1.00;;;;;;5462000;26;19924;-76
2024/04/19 04:02:48;;;;;;;;;;;7.20;1.00;;;;;;5464777;26;19931;-76
2024/04/19 04:05:18;;;;;;;;;;;7.20;1.00;;;;;;5445154;26;19924;-76
2024/04/19 04:07:45;;;;;;;;;;;7.10;1.00;;;;;;5459461;26;19924;-75
2024/04/19 04:10:18;;;;;;;;;;;7.20;1.00;;;;;;5467988;26;19925;-77
2024/04/19 04:15:47;;;;;;;;;;;7.20;1.00;;;;;;5481563;26;19927;-79
2024/04/19 04:18:13;;;;;;;;;;;7.10;1.00;;;;;;5490745;26;19956;-80
2024/04/19 04:20:49;;;;;;;;;;;7.10;1.00;;;;;;5460166;26;19931;-79
2024/04/19 04:26:25;;;;;;;;;;;7.20;1.00;;;;;;5437787;26;19927;-80
2024/04/19 04:28:54;;;;;;;;;;;7.10;1.00;;;;;;5460704;26;20538;-80
2024/04/19 04:37:28;;;;;;;;;;;7.10;1.00;;;;;;5455912;26;19928;-79
2024/04/19 04:40:18;;;;;;;;;;;7.40;1.00;;;;;;5482758;26;19924;-79
2024/04/19 04:42:44;;;;;;;;;;;7.10;1.00;;;;;;5464990;26;19932;-80
2024/04/19 04:51:16;;;;;;;;;;;7.00;1.00;;;;;;5456108;26;20363;-80
2024/04/19 04:53:41;;;;;;;;;;;6.80;1.00;;;;;;5455578;26;19928;-80
2024/04/19 04:56:07;;;;;;;;;;;6.80;1.00;;;;;;5456118;26;19932;-73
2024/04/19 04:58:37;;;;;;;;;;;6.70;1.00;;;;;;5454049;26;20376;-74
2024/04/19 05:01:07;;;;;;;;;;;6.60;1.00;;;;;;5456654;26;19932;-73
2024/04/19 05:03:33;;;;;;;;;;;6.60;1.00;;;;;;5470308;26;19924;-73
2024/04/19 05:05:59;;;;;;;;;;;6.50;1.00;;;;;;5464864;26;19952;-74
2024/04/19 05:08:24;;;;;;;;;;;6.40;1.00;;;;;;5462203;26;19992;-74
2024/04/19 05:11:07;;;;;;;;;;;6.40;1.00;;;;;;5450152;26;19924;-79
2024/04/19 05:13:32;;;;;;;;;;;6.40;1.00;;;;;;5458355;26;19931;-75
2024/04/19 05:15:58;;;;;;;;;;;6.30;1.00;;;;;;5452855;26;19936;-76
2024/04/19 05:18:25;;;;;;;;;;;6.40;1.00;;;;;;5462495;26;19931;-77
2024/04/19 05:20:51;;;;;;;;;;;6.30;1.00;;;;;;5457363;26;19932;-76
2024/04/19 05:23:17;;;;;;;;;;;6.40;1.00;;;;;;5460880;26;20004;-77
2024/04/19 05:25:43;;;;;;;;;;;6.30;1.00;;;;;;5472042;26;19924;-77
2024/04/19 05:28:08;;;;;;;;;;;6.30;1.00;;;;;;5416883;26;1008679;-76
2024/04/19 05:30:34;;;;;;;;;;;6.20;1.00;;;;;;5464857;26;19952;-76
2024/04/19 05:33:05;;;;;;;;;;;6.10;1.00;;;;;;5454696;26;19924;-77
2024/04/19 05:35:31;;;;;;;1.20;1.00;;;5.90;1.00;;;;;;5450769;26;20381;-76
2024/04/19 05:37:58;;;;;;;1.03;1.03;;;;;;;;;;5442647;26;20743;-76
2024/04/19 05:40:23;;;;;;;1.20;1.20;;;6.00;1.00;;;;;;5448078;26;21094;-76
2024/04/19 05:43:01;;;;;;;5.73;1.30;;;5.90;1.00;;;;;;5454201;26;20473;-76
2024/04/19 05:45:27;;;;;;;4.50;1.90;;;5.90;1.00;;;;;;5453937;26;20274;-77
2024/04/19 05:47:55;;;;;;;2.00;1.10;;;6.00;1.00;;;;;;5464632;26;20480;-76
2024/04/19 05:50:25;;;;;;;1.77;1.47;;;5.90;1.00;;;;;;5452331;26;20355;-77
2024/04/19 05:52:51;;;;;;;1.80;1.70;;;5.80;1.00;;;;;;5467618;26;20460;-77
2024/04/19 05:55:19;;;;;;;2.37;2.27;;;5.80;1.00;;;;;;5461832;26;20574;-77
2024/04/19 05:57:45;;;;;;;4.53;2.03;;;5.90;1.00;;;;;;5470889;26;20456;-76
2024/04/19 06:00:11;;;;;;;2.77;2.57;;;6.00;1.00;;;;;;5453866;26;20801;-76
2024/04/19 06:02:37;;;;;;;5.60;2.10;;;6.00;1.00;;;;;;5455506;26;20886;-77
2024/04/19 06:05:02;;;;;;;2.37;2.17;;;6.00;1.00;;;;;;5475230;26;20524;-76
2024/04/19 06:07:31;;;;;;;1.80;1.70;;;6.10;1.00;;;;;;5463288;26;20266;-76
2024/04/19 06:10:05;;;;;;;2.20;2.10;;;6.00;1.00;;;;;;5453767;26;20307;-76
2024/04/19 06:12:31;;;;;;;2.07;1.97;;;6.00;1.00;;;;;;5454399;26;20446;-77
2024/04/19 06:15:19;;;;;;;2.60;2.00;;;6.00;1.00;;;;;;5454069;26;21046;-76
2024/04/19 06:17:44;;;;;;;2.80;1.73;;;6.10;1.00;;;;;;5453847;26;20538;-76
2024/04/19 06:20:19;;;;;;;5.40;2.43;;;6.10;1.00;;;;;;5458957;26;20463;-77
2024/04/19 06:22:45;;;;;;;3.13;2.40;;;6.10;1.00;;;;;;5435006;26;20235;-76
2024/04/19 06:25:19;;;;;;;2.30;2.20;;;6.10;1.00;;;;;;5462338;26;20503;-77
2024/04/19 06:27:49;;;;;;;3.17;2.97;;;6.10;1.00;;;;;;5430407;26;20854;-76
2024/04/19 06:30:19;;;;;;;3.70;3.00;;;6.10;1.00;;;;;;5453700;26;21085;-76
2024/04/19 06:32:45;;;;;;;3.30;3.00;;;6.10;1.00;;;;;;5453842;26;20497;-76
2024/04/19 06:35:16;;;;;;;5.40;2.70;;;6.10;1.00;;;;;;5444657;26;20453;-76
2024/04/19 06:38:13;;;;;;;4.20;2.87;;;6.10;1.00;;;;;;5453108;26;20802;-77
2024/04/19 06:40:39;;;;;;;3.20;2.40;;;6.10;1.00;;;;;;5467738;26;20806;-78
2024/04/19 06:43:19;;;;;;;3.00;2.70;;;6.10;1.00;;;;;;5462460;26;20457;-77
2024/04/19 06:45:49;;;;;;;2.97;2.70;;;6.10;1.00;;;;;;5449266;26;21105;-77
2024/04/19 06:48:15;;;;;;;7.20;4.27;;;6.10;1.00;;;;;;5428715;26;20581;-76
2024/04/19 06:50:43;;;;;;;5.53;3.20;;;;;;;;;;5439037;26;20457;-76
2024/04/19 06:53:13;;;;;;;4.10;3.80;;;6.20;1.00;;;;;;5436726;26;20224;-77
2024/04/19 06:55:52;;;;;;;3.47;2.83;;;;;;;;;;5453258;26;20445;-77
2024/04/19 06:58:19;;;;;;;4.37;3.37;;;6.30;1.00;;;;;;5450161;26;20465;-76
2024/04/19 07:00:52;;;;;;;3.77;3.40;;;6.30;1.00;;;;;;5452029;26;20525;-76
2024/04/19 07:03:18;;;;;;;8.43;3.67;;;;;;;;;;5453219;26;20513;-76
2024/04/19 07:05:48;;;;;;;4.80;3.27;;;6.50;1.00;;;;;;5453158;26;20526;-77
2024/04/19 07:08:19;;;;;;;4.17;3.77;;;6.40;1.00;;;;;;5451220;26;21052;-76
2024/04/19 07:10:46;;;;;;;4.53;3.40;;;6.50;1.00;;;;;;5417281;26;20974;-77
2024/04/19 07:13:12;;;;;;;5.23;3.87;;;6.50;1.00;;;;;;5434681;26;20580;-77
2024/04/19 07:15:37;;;;;;;;;;;8.30;1.00;;;;;;5453533;26;20508;-77
2024/04/19 07:18:05;;;;;;;8.90;4.53;;;6.50;1.00;;;;;;5451302;26;20375;-76
2024/04/19 07:20:31;;;;;;;4.20;3.50;;;6.60;1.00;;;;;;5451480;26;20262;-77
2024/04/19 07:22:57;;;;;;;4.23;3.00;;;6.60;1.00;;;;;;5446774;26;20635;-77
2024/04/19 07:25:43;;;;;;;4.10;2.80;;;6.50;1.00;;;;;;5461937;26;20479;-76
2024/04/19 07:28:13;;;;;;;4.77;3.07;;;6.70;1.00;;;;;;5417488;26;20367;-77
2024/04/19 07:30:55;;;;;;;4.03;3.00;;;6.70;1.00;;;;;;5449626;26;20461;-77
2024/04/19 07:33:31;;;;;;;4.03;3.10;;;6.70;1.00;;;;;;5451496;26;20512;-76
2024/04/19 07:36:36;;;;;;;7.17;3.03;;;6.70;1.00;;;;;;5458186;26;21130;-77
2024/04/19 07:39:02;;;;;;;4.03;2.70;;;6.80;1.00;;;;;;5432134;26;20517;-76
2024/04/19 07:41:27;;;;;;;3.30;2.93;;;6.90;1.00;;;;;;5465636;26;20785;-76
2024/04/19 07:43:54;;;;;;;4.17;2.43;;;;;;;;;;5438737;26;20236;-76
2024/04/19 07:46:19;;;;;;;5.63;3.27;;;6.80;1.00;;;;;;5456348;26;20262;-77
2024/04/19 07:48:49;;;;;;;3.43;2.83;;;6.90;1.00;;;;;;5455920;26;20449;-77
2024/04/19 07:51:19;;;;;;;2.90;2.70;;;8.60;1.00;;;;;;5455942;26;20583;-77
2024/04/19 07:53:45;;;;;;;3.53;2.90;;;6.90;1.00;;;;;;5455717;26;20571;-76
2024/04/19 07:56:13;;;;;;;3.67;3.30;;;6.90;1.00;;;;;;5456131;26;20449;-77
2024/04/19 07:58:39;;;;;;;8.43;3.43;;;6.90;1.00;;;;;;5456135;26;20227;-77
2024/04/19 08:01:07;;;;;;;5.30;3.10;;;6.80;1.00;;;;;;5456089;26;20566;-77
2024/04/19 08:03:38;;;;;;;4.63;3.30;;;6.90;1.00;;;;;;5441726;26;20229;-77
2024/04/19 08:06:06;;;;;;;;;;;6.90;1.00;;;;;;5447292;26;20475;-77
2024/04/19 08:08:32;;;;;;;;;;;6.90;1.00;;;;;;5456180;26;20251;-77
2024/04/19 08:11:07;;;;;;;;;;;6.80;1.00;;;;;;5456443;26;20170;-78
2024/04/19 08:13:43;;;;;;;;;;;6.80;1.00;;;;;;5456565;26;20216;-77
2024/04/19 08:16:08;;;;;;;;;;;6.70;1.00;;;;;;5439475;26;20214;-77
2024/04/19 08:18:34;;;;;;;;;;;6.80;1.00;;;;;;5456565;26;20537;-77
2024/04/19 08:20:59;;;;;;;;;;;6.90;1.00;;;;;;5484771;26;20272;-77
2024/04/19 08:23:25;;;;;;;;;;;7.00;1.00;;;;;;5465223;26;20217;-77
2024/04/19 08:25:51;;;;;;;;;;;7.10;1.00;;;;;;5468026;26;19924;-78
2024/04/19 08:28:17;;;;;;;;;;;7.10;1.00;;;;;;5466902;26;20343;-77
2024/04/19 08:30:42;;;;;;;;;;;8.50;1.00;;;;;;5455883;26;19956;-76
2024/04/19 08:33:08;;;;;;;;;;;7.30;1.00;;;;;;5453417;26;19932;-75
2024/04/19 08:35:36;;;;;;;;;;;7.50;1.00;;;;;;5460905;26;19957;-75
2024/04/19 08:38:03;;;;;;;;;;;7.60;1.00;;;;;;5456011;26;19925;-75
2024/04/19 08:40:32;;;;;;;;;;;7.70;1.00;;;;;;5453241;26;19932;-76
2024/04/19 08:42:58;;;;;;;;;;;7.60;1.00;;;;;;5455400;26;20371;-76
2024/04/19 08:45:24;;;;;;;;;;;7.70;1.00;;;;;;5455924;26;19924;-76
2024/04/19 08:47:50;;;;;;;;;;;7.80;1.00;;;;;;5455812;26;19996;-76
2024/04/19 08:50:31;;;;;;;;;;;7.70;1.00;;;;;;5455809;26;19952;-77
2024/04/19 08:53:02;;;;;;;;;;;7.60;1.00;;;;;;5455766;26;20001;-77
2024/04/19 08:55:31;;;;;;;;;;;7.50;1.00;;;;;;5455680;26;19924;-78
2024/04/19 08:57:57;;;;;;;;;;;7.60;1.00;;;;;;5452560;26;19986;-77
2024/04/19 09:00:22;;;;;;;;;;;7.60;1.00;;;;;;5455825;26;19924;-77
2024/04/19 09:02:48;;;;;;;;;;;7.80;1.00;;;;;;5455410;26;19925;-77
2024/04/19 09:05:13;;;;;;;;;;;7.80;1.00;;;;;;5455625;26;19924;-77
2024/04/19 09:07:45;;;;;;;;;;;7.80;1.00;;;;;;5455452;26;19925;-77
2024/04/19 09:10:13;;;;;;;;;;;7.90;1.00;;;;;;5455479;26;19924;-77
2024/04/19 09:12:43;;;;;;;;;;;7.80;1.00;;;;;;5455537;26;19932;-77
2024/04/19 09:15:13;;;;;;;;;;;7.90;1.00;;;;;;5437890;26;19939;-77
2024/04/19 09:17:38;;;;;;;;;;;7.90;1.00;;;;;;5454425;26;19932;-79
2024/04/19 09:20:07;;;;;;;;;;;8.00;1.00;;;;;;5448117;26;19924;-76
2024/04/19 09:22:32;;;;;;;;;;;7.90;1.00;;;;;;5459026;26;19975;-77
2024/04/19 09:24:58;;;;;;;;;;;7.90;1.00;;;;;;5455614;26;19936;-78
2024/04/19 09:27:27;;;;;;;;;;;7.80;1.00;;;;;;5455068;26;19928;-77
2024/04/19 09:29:55;;;;;;;;;;;7.80;1.00;;;;;;5455975;26;19924;-78
2024/04/19 09:32:25;;;;;;;;;;;7.90;1.00;;;;;;5446885;26;19932;-78
2024/04/19 09:34:50;;;;;;;;;;;7.70;1.00;;;;;;5443337;26;19924;-77
2024/04/19 09:37:22;;;;;;;;;;;7.70;1.00;;;;;;5453301;26;20172;-77
2024/04/19 09:39:47;;;;;;;;;;;7.60;1.00;;;;;;5461024;26;19938;-78
2024/04/19 09:42:19;;;;;;;;;;;7.60;1.00;;;;;;5484373;26;19924;-77
2024/04/19 09:44:47;;;;;;;;;;;7.60;1.00;;;;;;5473768;26;19963;-77
2024/04/19 09:47:15;;;;;;;;;;;7.50;1.00;;;;;;5447462;26;19924;-77
2024/04/19 09:49:50;;;;;;;;;;;7.40;1.00;;;;;;5472996;26;19931;-72
2024/04/19 09:52:42;;;;;;;;;;;7.50;1.00;;;;;;5466114;26;19961;-79
2024/04/19 09:55:28;;;;;;;;;;;7.50;1.00;;;;;;5462377;26;20262;-76
2024/04/19 09:57:54;;;;;;;;;;;7.50;1.00;;;;;;5460907;26;19924;-79
2024/04/19 10:00:37;;;;;;;;;;;7.40;1.00;;;;;;5471703;26;19924;-81
2024/04/19 10:03:08;;;;;;;;;;;7.50;1.00;;;;;;5459119;26;19936;-81
2024/04/19 10:05:43;;;;;;;;;;;7.50;1.00;;;;;;5470648;26;19925;-80
2024/04/19 10:08:11;;;;;;;;;;;7.50;1.00;;;;;;5474435;26;19931;-77
2024/04/19 10:10:43;;;;;;;;;;;7.70;1.00;;;;;;5461723;26;19931;-78
2024/04/19 10:13:19;;;;;;;;;;;7.80;1.00;;;;;;5448923;26;19940;-78
2024/04/19 10:15:48;;;;;;;;;;;7.80;1.00;;;;;;5456122;26;19932;-77
2024/04/19 10:18:13;;;;;;;;;;;7.80;1.00;;;;;;5466042;26;19924;-77
2024/04/19 10:20:40;;;;;;;;;;;7.80;1.00;;;;;;5456938;26;19993;-74
2024/04/19 10:23:15;;;;;;;;;;;8.00;1.00;;;;;;5462184;26;19993;-76
2024/04/19 10:25:45;;;;;;;;;;;8.00;1.00;;;;;;5456707;26;19924;-76
2024/04/19 10:28:10;;;;;;;;;;;8.10;1.00;;;;;;5472051;26;19924;-76
2024/04/19 10:30:38;;;;;;;;;;;8.10;1.00;;;;;;5465865;26;19928;-76
2024/04/19 10:33:10;;;;;;;;;;;8.10;1.00;;;;;;5459446;26;19993;-77
2024/04/19 10:35:36;;;;;;;;;;;8.30;1.00;;;;;;5449412;26;19928;-76
2024/04/19 10:38:04;;;;;;;;;;;8.30;1.00;;;;;;5453316;26;20368;-77
2024/04/19 10:40:30;;;;;;;;;;;8.20;1.00;;;;;;5455862;26;19929;-75
2024/04/19 10:43:04;;;;;;;;;;;8.20;1.00;;;;;;5454408;26;19941;-76
2024/04/19 10:45:31;;;;;;;;;;;8.40;1.00;;;;;;5454143;26;19929;-77
2024/04/19 10:48:00;;;;;;;;;;;8.40;1.00;;;;;;5454147;26;20028;-78
2024/04/19 10:50:27;;;;;;;;;;;8.50;1.00;;;;;;5454000;26;20372;-78
2024/04/19 10:52:52;;;;;;;;;;;8.60;1.00;;;;;;5454332;26;20280;-78
2024/04/19 10:55:18;;;;;;;;;;;8.80;1.00;;;;;;5452689;26;19935;-77
2024/04/19 10:57:43;;;;;;;;;;;8.90;1.00;;;;;;5453905;26;19929;-78
2024/04/19 11:00:10;;;;;;;;;;;8.90;1.00;;;;;;5453980;26;19928;-77
2024/04/19 11:02:37;;;;;;;;;;;8.90;1.00;;;;;;5435100;26;19936;-77
2024/04/19 11:05:08;;;;;;;;;;;9.30;1.00;;;;;;5453861;26;19999;-78
2024/04/19 11:07:49;;;;;;;;;;;9.60;1.00;;;;;;5454002;26;19935;-78
2024/04/19 11:10:14;;;;;;;;;;;9.70;1.00;;;;;;5452732;26;19997;-77
2024/04/19 11:12:40;;;;;;;;;;;9.60;1.00;;;;;;5453682;26;19966;-78
2024/04/19 11:15:07;;;;;;;;;;;9.70;1.00;;;;;;5454279;26;19929;-76
2024/04/19 11:17:33;;;;;;;;;;;9.70;1.00;;;;;;5453598;26;19944;-77
2024/04/19 11:20:07;;;;;;;;;;;9.70;1.00;;;;;;5453441;26;19928;-77
2024/04/19 11:22:36;;;;;;;3.10;1.70;;;9.40;1.00;;;;;;5452857;26;20245;-77
2024/04/19 11:25:03;;;;;;;2.03;1.93;;;9.30;1.00;;;;;;5452497;26;20220;-77
2024/04/19 11:27:37;;;;;;;1.70;1.60;;;9.40;1.00;;;;;;5452841;26;21077;-77
2024/04/19 11:30:06;;;;;;;2.60;1.70;;;9.30;1.00;;;;;;5417253;26;20455;-77
2024/04/19 11:32:35;;;;;;;1.33;1.23;;;9.20;1.00;;;;;;5450673;26;20453;-77
2024/04/19 11:35:01;;;;;;;1.20;1.20;;;9.80;1.00;;;;;;5452345;26;20455;-77
2024/04/19 11:37:28;;;;;;;1.37;1.37;;;;;;;;;;5453015;26;20410;-77
2024/04/19 11:39:55;;;;;;;3.93;2.17;;;9.50;1.00;;;;;;5452668;26;20414;-77
2024/04/19 11:42:25;;;;;;;1.80;1.70;;;9.80;1.00;;;;;;5452386;26;20429;-76
2024/04/19 11:44:51;;;;;;;1.83;1.73;;;9.70;1.00;;;;;;5442592;26;20424;-76
2024/04/19 11:47:20;;;;;;;2.33;2.13;;;9.80;1.00;;;;;;5452888;26;20473;-78
2024/04/19 11:49:46;;;;;;;;;;;9.80;1.00;;;;;;5452849;26;20216;-78
2024/04/19 11:52:11;;;;;;;;;;;9.80;1.00;;;;;;5453014;26;19963;-77
2024/04/19 11:54:37;;;;;;;;;;;9.60;1.00;;;;;;5452821;26;19925;-78
2024/04/19 11:57:03;;;;;;;22.10;12.25;;;9.50;1.00;;;;;;5451767;26;20341;-78
2024/04/19 11:59:29;;;;;;;;;;;9.50;1.00;;;;;;5452220;26;20231;-76
2024/04/19 12:02:01;;;;;;;;;;;9.70;1.00;;;;;;5451431;26;20344;-77
2024/04/19 12:04:27;;;;;;;;;;;;;;;;;;5445997;26;20321;-77
2024/04/19 12:06:53;;;;;;;;;;;9.70;1.00;;;;;;5452766;26;20239;-77
2024/04/19 12:09:18;;;;;;;;;;;9.70;1.00;;;;;;5452980;26;19931;-78
2024/04/19 12:11:44;;;;;;;;;;;9.70;1.00;;;;;;5452313;26;20259;-78
2024/04/19 12:14:13;;;;;;;;;;;9.80;1.00;;;;;;5452599;26;19933;-78
2024/04/19 12:16:38;;;;;;;;;;;10.30;1.00;;;;;;5453147;26;19925;-77
2024/04/19 12:19:04;;;;;;;;;;;10.60;1.00;;;;;;5456237;26;19935;-76
2024/04/19 12:21:31;;;;;;;;;;;10.80;1.00;;;;;;5468232;26;19935;-77
2024/04/19 12:24:07;;;;;;;;;;;10.90;1.00;;;;;;5456356;26;19931;-77
2024/04/19 12:26:32;;;;;;;;;;;10.80;1.00;;;;;;5456194;26;19936;-77
2024/04/19 12:29:07;;;;;;;;;;;10.80;1.00;;;;;;5456243;26;19994;-76
2024/04/19 12:31:37;;;;;;;;;;;10.90;1.00;;;;;;5456349;26;19924;-77
2024/04/19 12:34:07;;;;;;;;;;;11.00;1.00;;;;;;5455902;26;19948;-77
2024/04/19 12:36:39;;;;;;;;;;;10.80;1.00;;;;;;5442805;26;19925;-77
2024/04/19 12:39:04;;;;;;;;;;;10.70;1.00;;;;;;5438432;26;20372;-77
2024/04/19 12:41:31;;;;;;;;;;;10.90;1.00;;;;;;5455842;26;19924;-77
2024/04/19 12:44:01;;;;;;;;;;;11.00;1.00;;;;;;5456006;26;19924;-77
2024/04/19 12:46:27;;;;;;;;;;;11.20;1.00;;;;;;5446582;26;19925;-77
2024/04/19 12:49:01;;;;;;;;;;;11.70;1.00;;;;;;5455638;26;20389;-77
2024/04/19 12:51:31;;;;;;;;;;;11.70;1.00;;;;;;5447046;26;19924;-77
2024/04/19 12:53:57;;;;;;;;;;;12.00;1.00;;;;;;5455717;26;19925;-76
2024/04/19 12:56:25;;;;;;;;;;;12.00;1.00;;;;;;5456088;26;19924;-77
2024/04/19 12:58:52;;;;;;;;;;;12.00;1.00;;;;;;5455622;26;19932;-77
2024/04/19 13:01:31;;;;;;;;;;;12.00;1.00;;;;;;5455963;26;19924;-77
2024/04/19 13:03:57;;;;;;;;;;;11.80;1.00;;;;;;5455690;26;19966;-77
2024/04/19 13:06:22;;;;;;;;;;;11.40;1.00;;;;;;5455116;26;19961;-77
2024/04/19 13:08:49;;;;;;;;;;;11.30;1.00;;;;;;5455617;26;19925;-77
2024/04/19 13:11:19;;;;;;;;;;;11.10;1.00;;;;;;5455706;26;19931;-77
2024/04/19 13:13:50;;;;;;;;;;;11.10;1.00;;;;;;5455499;26;19924;-78
2024/04/19 13:16:16;;;;;;;;;;;10.90;1.00;;;;;;5455736;26;19948;-76
2024/04/19 13:18:42;;;;;;;;;;;10.90;1.00;;;;;;5455498;26;20325;-77
2024/04/19 13:21:07;;;;;;;;;;;10.60;1.00;;;;;;5455278;26;19924;-76
2024/04/19 13:23:33;;;;;;;;;;;10.20;1.00;;;;;;5455526;26;19931;-76
2024/04/19 13:25:59;;;;;;;;;;;10.10;1.00;;;;;;5449832;26;19935;-77
2024/04/19 13:28:25;;;;;;;;;;;10.00;1.00;;;;;;5453488;26;19960;-77
2024/04/19 13:30:56;;;;;;;;;;;9.90;1.00;;;;;;5455206;26;19925;-77
2024/04/19 13:33:22;;;;;;;;;;;9.70;1.00;;;;;;5455540;26;19928;-77
2024/04/19 13:35:49;;;;;;;;;;;9.60;1.00;;;;;;5471960;26;20256;-76
2024/04/19 13:38:14;;;;;;;;;;;9.70;1.00;;;;;;5431517;26;19924;-76
2024/04/19 13:40:43;;;;;;;;;;;9.60;1.00;;;;;;5443330;26;19924;-77
2024/04/19 13:43:13;;;;;;;;;;;9.60;1.00;;;;;;5455152;26;19928;-76
2024/04/19 13:45:39;;;;;;;;;;;9.70;1.00;;;;;;5454998;26;19932;-77
2024/04/19 13:48:05;;;;;;;;;;;9.70;1.00;;;;;;5453561;26;19934;-78
2024/04/19 13:50:31;;;;;;;;;;;9.80;1.00;;;;;;5454747;26;20374;-79
2024/04/19 13:52:57;;;;;;;;;;;9.90;1.00;;;;;;5455244;26;19924;-79
2024/04/19 13:55:31;;;;;;;;;;;9.80;1.00;;;;;;5456525;26;19989;-78
2024/04/19 13:58:13;;;;;;;;;;;9.70;1.00;;;;;;5474944;26;19935;-78
2024/04/19 14:00:43;;;;;;;;;;;9.60;1.00;;;;;;5427096;26;20401;-79
2024/04/19 14:03:08;;;;;;;;;;;9.50;1.00;;;;;;5447310;26;19924;-77
2024/04/19 14:05:55;;;;;;;;;;;9.50;1.00;;;;;;5454675;26;19935;-78
2024/04/19 14:08:21;;;;;;;;;;;9.50;1.00;;;;;;5424923;26;19936;-80
2024/04/19 14:10:47;;;;;;;;;;;9.50;1.00;;;;;;5451333;26;20341;-78
2024/04/19 14:13:32;;;;;;;;;;;9.50;1.00;;;;;;5452607;26;19952;-77
2024/04/19 14:16:01;;;;;;;;;;;9.70;1.00;;;;;;5454579;26;19924;-77
2024/04/19 14:18:27;;;;;;;;;;;9.70;1.00;;;;;;5454970;26;19928;-77
2024/04/19 14:20:53;;;;;;;;;;;9.90;1.00;;;;;;5455942;26;19966;-77
2024/04/19 14:23:19;;;;;;;;;;;9.90;1.00;;;;;;5452447;26;19932;-76
2024/04/19 14:25:44;;;;;;;;;;;9.90;1.00;;;;;;5452890;26;19992;-76
2024/04/19 14:28:10;;;;;;;;;;;9.70;1.00;;;;;;5457724;26;19932;-77
2024/04/19 14:30:37;;;;;;;;;;;10.00;1.00;;;;;;5453906;26;19924;-76
2024/04/19 14:33:10;;;;;;;;;;;10.10;1.00;;;;;;5454339;26;19924;-77
2024/04/19 14:35:46;;;;;;;;;;;10.80;1.00;;;;;;5466988;26;19931;-76
2024/04/19 14:38:13;;;;;;;;;;;10.90;1.00;;;;;;5440426;26;19925;-76
2024/04/19 14:40:39;;;;;;;;;;;10.90;1.00;;;;;;5434848;26;19936;-76
2024/04/19 14:43:08;;;;;;;;;;;11.00;1.00;;;;;;5446684;26;20291;-76
2024/04/19 14:45:37;;;;;;;;;;;11.40;1.00;;;;;;5418365;26;19936;-76
2024/04/19 14:48:03;;;;;;;;;;;11.50;1.00;;;;;;5449306;26;19924;-76
2024/04/19 14:50:37;;;;;;;;;;;10.90;1.00;;;;;;5453925;26;19952;-77
2024/04/19 14:53:03;;;;;;;;;;;10.90;1.00;;;;;;5453669;26;19924;-76
2024/04/19 14:55:28;;;;;;;;;;;10.70;1.00;;;;;;5453206;26;19925;-76
2024/04/19 14:57:54;;;;;;;;;;;10.70;1.00;;;;;;5441829;26;19924;-76